Flight Track Log - Related Links

Times and Time Zones

All times are in EDT time to prevent confusion due to time zone crossing. See the SWA1035 flight status page for this flight to view local times or setup timezone preferences in your user account.

Time Position Orientation Groundspeed Altitude Reporting Facility
EDT Latitude Longitude Course Direction KTS MPH feet Rate Location/Type
Wed 02:27:04 PM 39.2000 -94.7667 203° Southwest 220 253 5,200  Level Kansas City TRACON
Wed 02:27:22 PM 39.1944 -94.7706 208° Southwest 215 247 5,600 3,000 Climbing Kansas City Center
Wed 02:28:24 PM 39.1622 -94.8411 240° Southwest 257 296 9,200 3,024 Climbing Kansas City Center
Wed 02:29:25 PM 39.1736 -94.9556 277° West 303 349 11,800 3,000 Climbing Kansas City Center
Wed 02:30:28 PM 39.1844 -95.0697 277° West 333 383 15,400 3,581 Climbing Kansas City Center
Wed 02:31:29 PM 39.1978 -95.2069 277° West 339 390 19,200 3,312 Climbing Kansas City Center
Wed 02:32:33 PM 39.2100 -95.3281 277° West 341 392 22,300 2,806 Climbing Kansas City Center
Wed 02:33:33 PM 39.2039 -95.4594 267° West 344 396 25,000 3,393 Climbing Kansas City Center
Wed 02:34:35 PM 39.1800 -95.5758 255° West 333 383 29,200 3,408 Climbing Kansas City Center
Wed 02:35:38 PM 39.1614 -95.6642 255° West 272 313 32,100 1,488 Climbing Kansas City Center
Wed 02:36:40 PM 39.1356 -95.7800 254° West 307 353 32,300 581 Climbing Kansas City Center
Wed 02:37:42 PM 39.1100 -95.8900 253° West 333 383 33,300 1,171 Climbing Kansas City Center
Wed 02:38:43 PM 39.0856 -96.0022 254° West 338 389 34,700 1,296 Climbing Kansas City Center
Wed 02:39:47 PM 39.0569 -96.1333 254° West 340 391 36,000 629 Climbing Kansas City Center
Wed 02:40:47 PM 39.0317 -96.2433 254° West 336 387 36,000 595 Level Kansas City Center
Wed 02:41:48 PM 39.0031 -96.3711 254° West 332 382 37,200 960 Climbing Kansas City Center
Wed 02:42:52 PM 38.9728 -96.4922 252° West 335 386 38,000 375 Climbing Kansas City Center
Wed 02:43:56 PM 38.9461 -96.6108 254° West 343 395 38,000  Level Kansas City Center
Wed 02:44:56 PM 38.9197 -96.7300 254° West 346 398 38,000  Level Kansas City Center
Wed 02:45:57 PM 38.8939 -96.8486 254° West 346 398 38,000  Level Kansas City Center
Wed 02:47:00 PM 38.8669 -96.9639 253° West 340 391 38,000  Level Kansas City Center
Wed 02:48:01 PM 38.8403 -97.0792 253° West 338 389 38,000  Level Kansas City Center
Wed 02:49:04 PM 38.8078 -97.2167 253° West 336 387 38,000  Level Kansas City Center
Wed 02:50:06 PM 38.7808 -97.3306 253° West 335 386 38,000 97 Level Kansas City Center
Wed 02:51:08 PM 38.7539 -97.4442 253° West 335 386 38,200 634 Climbing Kansas City Center
Wed 02:52:09 PM 38.7236 -97.5756 254° West 339 390 39,300 720 Climbing Kansas City Center
Wed 02:53:13 PM 38.6983 -97.6775 252° West 346 398 39,700 333 Climbing Kansas City Center
Wed 02:54:15 PM 38.6683 -97.7986 252° West 357 411 40,000 145 Climbing Kansas City Center
Wed 02:55:17 PM 38.6339 -97.9458 253° West 361 415 40,000  Level Kansas City Center
Wed 02:56:18 PM 38.6039 -98.0678 253° West 361 415 40,000  Level Kansas City Center
Wed 02:57:21 PM 38.5739 -98.1894 253° West 361 415 40,000  Level Kansas City Center
Wed 02:58:22 PM 38.5442 -98.3089 252° West 356 410 40,000  Level Kansas City Center
Wed 02:59:23 PM 38.5147 -98.4283 253° West 355 409 40,000  Level Kansas City Center
Wed 03:00:27 PM 38.4808 -98.5708 253° West 352 405 40,000  Level Kansas City Center
Wed 03:01:27 PM 38.4419 -98.6850 247° West 352 405 40,000  Level Kansas City Center
Wed 03:02:30 PM 38.4008 -98.7986 245° Southwest 354 407 40,000  Level Kansas City Center
Wed 03:03:30 PM 38.3586 -98.9108 244° Southwest 353 406 40,000  Level Kansas City Center
Wed 03:04:32 PM 38.3178 -99.0219 245° Southwest 349 402 40,000  Level Kansas City Center
Wed 03:05:36 PM 38.2783 -99.1325 246° West 346 398 40,000  Level Kansas City Center
Wed 03:06:37 PM 38.2300 -99.2644 245° Southwest 344 396 40,000  Level Kansas City Center
Wed 03:07:40 PM 38.1911 -99.3742 246° West 342 394 40,000  Level Kansas City Center
Wed 03:08:41 PM 38.1494 -99.4817 244° Southwest 341 392 40,000  Level Kansas City Center
Wed 03:09:43 PM 38.1078 -99.5983 246° West 337 388 40,000  Level Kansas City Center
Wed 03:10:46 PM 38.0700 -99.7006 245° Southwest 335 386 40,000  Level Kansas City Center
Wed 03:11:47 PM 38.0250 -99.8200 244° Southwest 336 387 40,000  Level Kansas City Center
Wed 03:12:48 PM 37.9878 -99.9208 245° Southwest 332 382 40,000  Level Kansas City Center
Wed 03:13:51 PM 37.9431 -100.0378 244° Southwest 331 381 40,000  Level Kansas City Center
Wed 03:14:52 PM 37.9056 -100.1392 245° Southwest 332 382 40,000  Level Kansas City Center
Wed 03:15:55 PM 37.8606 -100.2572 244° Southwest 333 383 40,000  Level Kansas City Center
Wed 03:16:56 PM 37.8214 -100.3589 244° Southwest 335 386 40,000  Level Kansas City Center
Wed 03:18:00 PM 37.7831 -100.4594 244° Southwest 333 383 40,000  Level Kansas City Center
Wed 03:19:00 PM 37.7411 -100.5692 244° Southwest 337 388 40,000  Level Kansas City Center
Wed 03:20:04 PM 37.7006 -100.6747 244° Southwest 336 387 40,000  Level Kansas City Center
Wed 03:21:05 PM 37.6514 -100.7997 244° Southwest 332 382 40,000  Level Kansas City Center
Wed 03:22:07 PM 37.6086 -100.9100 244° Southwest 338 389 40,000  Level Kansas City Center
Wed 03:23:10 PM 37.5689 -101.0131 244° Southwest 332 382 40,000  Level Kansas City Center
Wed 03:24:10 PM 37.5278 -101.1181 244° Southwest 332 382 40,000  Level Kansas City Center
Wed 03:25:14 PM 37.4861 -101.2261 244° Southwest 335 386 40,000  Level Kansas City Center
Wed 03:26:15 PM 37.4397 -101.3444 244° Southwest 337 388 40,000  Level Kansas City Center
Wed 03:27:16 PM 37.3994 -101.4456 243° Southwest 338 389 40,000  Level Kansas City Center
Wed 03:28:19 PM 37.3519 -101.5647 243° Southwest 340 391 40,000  Level Kansas City Center
Wed 03:29:20 PM 37.3117 -101.6678 244° Southwest 341 392 40,000  Level Kansas City Center
Wed 03:30:21 PM 37.2647 -101.7867 244° Southwest 341 392 40,000  Level Kansas City Center
Wed 03:31:25 PM 37.2228 -101.8894 243° Southwest 344 396 40,000  Level Kansas City Center
Wed 03:31:50 PM 37.2022 -101.9408 243° Southwest 343 395 40,000  Level Albuquerque Center
Wed 03:32:52 PM 37.1611 -102.0439 243° Southwest 345 397 40,000  Level Albuquerque Center
Wed 03:33:54 PM 37.1142 -102.1644 244° Southwest 346 398 40,000  Level Albuquerque Center
Wed 03:34:56 PM 37.0717 -102.2664 242° Southwest 345 397 40,000  Level Albuquerque Center
Wed 03:35:58 PM 37.0242 -102.3875 244° Southwest 346 398 40,000  Level Albuquerque Center
Wed 03:37:00 PM 36.9817 -102.4903 243° Southwest 349 402 40,000  Level Albuquerque Center
Wed 03:38:02 PM 36.9325 -102.6097 243° Southwest 347 399 40,000  Level Albuquerque Center
Wed 03:39:04 PM 36.8853 -102.7225 242° Southwest 350 403 40,000  Level Albuquerque Center
Wed 03:40:06 PM 36.8419 -102.8344 244° Southwest 353 406 40,000  Level Albuquerque Center
Wed 03:41:08 PM 36.7969 -102.9422 242° Southwest 350 403 40,000  Level Albuquerque Center
Wed 03:42:10 PM 36.7508 -103.0519 242° Southwest 352 405 40,000  Level Albuquerque Center
Wed 03:43:12 PM 36.7050 -103.1611 242° Southwest 354 407 40,000  Level Albuquerque Center
Wed 03:44:14 PM 36.6597 -103.2714 243° Southwest 354 407 40,000  Level Albuquerque Center
Wed 03:45:16 PM 36.6142 -103.3800 242° Southwest 351 404 40,000  Level Albuquerque Center
Wed 03:46:18 PM 36.5614 -103.5053 242° Southwest 350 403 40,000  Level Albuquerque Center
Wed 03:47:20 PM 36.5167 -103.6147 243° Southwest 351 404 40,000  Level Albuquerque Center
Wed 03:48:22 PM 36.4708 -103.7225 242° Southwest 352 405 40,000  Level Albuquerque Center
Wed 03:49:24 PM 36.4247 -103.8311 242° Southwest 352 405 40,000  Level Albuquerque Center
Wed 03:50:26 PM 36.3786 -103.9408 242° Southwest 355 409 40,000  Level Albuquerque Center
Wed 03:51:28 PM 36.3308 -104.0503 242° Southwest 358 412 40,000  Level Albuquerque Center
Wed 03:52:30 PM 36.2828 -104.1619 242° Southwest 362 417 40,000  Level Albuquerque Center
Wed 03:53:32 PM 36.2281 -104.2922 243° Southwest 364 419 40,000  Level Albuquerque Center
Wed 03:54:34 PM 36.1800 -104.4019 242° Southwest 361 415 40,000  Level Albuquerque Center
Wed 03:55:36 PM 36.1333 -104.5106 242° Southwest 358 412 40,000  Level Albuquerque Center
Wed 03:56:38 PM 36.0864 -104.6189 242° Southwest 357 411 40,000  Level Albuquerque Center
Wed 03:57:40 PM 36.0389 -104.7261 241° Southwest 355 409 40,000  Level Albuquerque Center
Wed 03:58:42 PM 35.9928 -104.8314 242° Southwest 349 402 40,000  Level Albuquerque Center
Wed 03:59:44 PM 35.9458 -104.9397 242° Southwest 353 406 40,000  Level Albuquerque Center
Wed 04:00:46 PM 35.8911 -105.0647 242° Southwest 353 406 40,000  Level Albuquerque Center
Wed 04:01:48 PM 35.8447 -105.1706 242° Southwest 350 403 40,000  Level Albuquerque Center
Wed 04:02:50 PM 35.7964 -105.2772 241° Southwest 353 406 40,000 -290 Level Albuquerque Center
Wed 04:03:52 PM 35.7486 -105.3825 241° Southwest 352 405 39,400 -1,452 Descending Albuquerque Center
Wed 04:04:54 PM 35.7042 -105.4867 242° Southwest 345 397 37,000 -2,537 Descending Albuquerque Center
Wed 04:05:55 PM 35.6911 -105.5989 262° West 339 390 34,200 -2,341 Descending Albuquerque Center
Wed 04:06:57 PM 35.6806 -105.7108 263° West 334 384 32,200 -1,984 Descending Albuquerque Center
Wed 04:07:59 PM 35.6689 -105.8217 263° West 330 380 30,100 -2,129 Descending Albuquerque Center
Wed 04:09:01 PM 35.6564 -105.9539 263° West 325 374 27,800 -2,081 Descending Albuquerque Center
Wed 04:10:03 PM 35.6469 -106.0600 264° West 317 365 25,800 -1,887 Descending Albuquerque Center
Wed 04:11:05 PM 35.6356 -106.1639 262° West 311 358 23,900 -1,790 Descending Albuquerque Center
Wed 04:12:07 PM 35.6269 -106.2678 264° West 308 354 22,100 -1,742 Descending Albuquerque Center
Wed 04:13:09 PM 35.6169 -106.3692 263° West 302 348 20,300 -1,742 Descending Albuquerque Center
Wed 04:14:11 PM 35.6058 -106.4706 262° West 301 346 18,500 -1,935 Descending Albuquerque Center
Wed 04:15:13 PM 35.5778 -106.5836 253° West 305 351 16,300 -1,962 Descending Albuquerque Center
Wed 04:15:55 PM 35.5194 -106.6172 205° Southwest 316 364 15,100 -1,258 Descending Albuquerque Center
Wed 04:16:15 PM 35.4989 -106.6289 205° Southwest 312 359 15,000 -984 Descending Albuquerque Center
Wed 04:16:56 PM 35.4453 -106.6572 203° Southwest 290 334 14,100 -1,258 Descending Albuquerque Center
Wed 04:17:17 PM 35.4264 -106.6681 205° Southwest 295 339 13,700 -1,500 Descending Albuquerque Center
Wed 04:17:56 PM 35.3728 -106.6942 202° Southwest 276 318 12,600 -1,452 Descending Albuquerque Center
Wed 04:18:19 PM 35.3558 -106.7053 208° Southwest 280 322 12,200 -1,418 Descending Albuquerque Center
Wed 04:18:51 PM 35.3086 -106.7292 202° Southwest 278 320 11,300 -1,452 Descending Albuquerque Center
Wed 04:19:21 PM 35.2839 -106.7444 207° Southwest 281 323 10,700 -1,475 Descending Albuquerque Center
Wed 04:19:52 PM 35.2369 -106.7708 205° Southwest 289 333 9,800 -1,258 Descending Albuquerque Center
Wed 04:20:23 PM 35.2097 -106.7808 197° South 286 329 9,400 -1,100 Descending Albuquerque Center
Wed 04:20:52 PM 35.1603 -106.7725 172° South 280 322 8,700 -1,355 Descending Albuquerque Center
Wed 04:21:25 PM 35.1186 -106.7622 169° South 275 316 8,000 -689 Descending Albuquerque Center
Wed 04:21:53 PM 35.0853 -106.7578 174° South 249 287 8,000  Level Albuquerque Center
Wed 04:22:27 PM 35.0569 -106.7442 159° South 238 274 8,000 -537 Level Albuquerque Center
Wed 04:23:00 PM 35.0408 -106.7225 132° Southeast 160 184 7,400 -1,452 Descending Albuquerque Center
Wed 04:23:29 PM 35.0436 -106.6956 83° East 191 220 6,500 -1,309 Descending Albuquerque Center
Wed 04:23:55 PM 35.0447 -106.6722 87° East 150 173 6,200 -762 Descending Albuquerque Center
Wed 04:24:32 PM 35.0444 -106.6408 91° East 171 197 5,700 -490 Descending Albuquerque Center
Wed 04:25:33 PM 35.0447 -106.5914 90° East 167 192 5,400 -295 Descending Albuquerque Center
Wed 04:27:00 PM 35.0333 -106.6000 90° East  Level FlightAware Approximate

Login

Don't have an account? Register now (free) for customized features, flight alerts, and more!